Briefing drone pour Fontaine

Rechercher une autre localisation

Conditions de vol :


Nous sommes le : Jeudi 24 septembre 2020
Il est 23:51 UTC (01:51 LT)

Lever de soleil : 05:00 UTC (07:00 LT)
Coucher de soleil : 17:57 UTC (19:57 LT)

Météo

L'essentiel des conditions de vol

VIGILANCE MÉTÉO FRANCE - Isère (38)
Pas de vigilances particulieres
CARTE TEMSI
CARTES DES FRONTS
METAR de LFLS
LFLS 232330Z AUTO 33004KT 9999 FEW058 OVC088 18/16 Q1012

Date d'émission: 23/09/2020
Heure d'émission: 23:30 UTC
Vent: 330° pour 4 KT (7 km/h)
Visibilité horizontale: > 10 km
Plafond :
- Peu de nuages à 5800ft (1768m)
- Couvert à 8800ft (2682m)
Température: 18 °C
Point de rosée: 16 °C
Humidité: 88%
Pression (QNH): 1012 hPa
TAF de LFLS
LFLS 231859Z 2318/2415 CNL

Conditions prévues :

Heure d'émission : Bulletin éffectué le 23 à 18:00 UTC
Prévision : Valide du 23 a 18:00 UTC au 24 a 15:00 UTC
Nuages : à 0ft (0 m)
WEBCAM POUR FONTAINE

Réglementation

Voler en sécurité

CARTES AERONAUTIQUE 1/500.000
CARTES VAC (LFLS)
SUP AIP




Chargement des AIP...
NOTAM (FONTAINE + Terrain à proximité / FIR )




Chargement des NOTAMS...
CONTACT PREFECTURE 38


Avertissement : Les données mises à disposition sont indicatives. Oxygène Drone ne pourra être tenu responsable de dégâts causés aux biens et aux personnes.